sensor_id;sensor_type;location;lat;lon;timestamp;P1;durP1;ratioP1;P2;durP2;ratioP2
12052;SDS011;6087;48.982;12.064;2022-07-23T00:01:28;8.13;;;7.22;;
12052;SDS011;6087;48.982;12.064;2022-07-23T00:03:56;8.30;;;7.47;;
12052;SDS011;6087;48.982;12.064;2022-07-23T00:06:23;10.88;;;7.85;;
12052;SDS011;6087;48.982;12.064;2022-07-23T00:08:50;8.85;;;8.05;;
12052;SDS011;6087;48.982;12.064;2022-07-23T00:11:18;8.27;;;7.40;;
12052;SDS011;6087;48.982;12.064;2022-07-23T00:13:47;7.90;;;7.20;;
12052;SDS011;6087;48.982;12.064;2022-07-23T00:16:14;9.25;;;7.15;;
12052;SDS011;6087;48.982;12.064;2022-07-23T00:18:41;8.55;;;7.03;;
12052;SDS011;6087;48.982;12.064;2022-07-23T00:21:07;9.20;;;7.60;;
12052;SDS011;6087;48.982;12.064;2022-07-23T00:23:34;10.60;;;7.70;;
12052;SDS011;6087;48.982;12.064;2022-07-23T00:26:01;10.32;;;8.30;;
12052;SDS011;6087;48.982;12.064;2022-07-23T00:28:29;9.10;;;8.30;;
12052;SDS011;6087;48.982;12.064;2022-07-23T00:30:56;11.88;;;7.55;;
12052;SDS011;6087;48.982;12.064;2022-07-23T00:33:23;14.25;;;8.23;;
12052;SDS011;6087;48.982;12.064;2022-07-23T00:35:50;9.40;;;8.48;;
12052;SDS011;6087;48.982;12.064;2022-07-23T00:38:17;9.00;;;8.10;;
12052;SDS011;6087;48.982;12.064;2022-07-23T00:40:44;11.27;;;8.63;;
12052;SDS011;6087;48.982;12.064;2022-07-23T00:43:11;10.70;;;8.70;;
12052;SDS011;6087;48.982;12.064;2022-07-23T00:45:39;9.25;;;8.35;;
12052;SDS011;6087;48.982;12.064;2022-07-23T00:48:06;9.85;;;8.82;;
12052;SDS011;6087;48.982;12.064;2022-07-23T00:50:33;10.25;;;9.35;;
12052;SDS011;6087;48.982;12.064;2022-07-23T00:53:00;14.15;;;8.65;;
12052;SDS011;6087;48.982;12.064;2022-07-23T00:55:27;9.93;;;8.10;;
12052;SDS011;6087;48.982;12.064;2022-07-23T00:57:54;14.23;;;8.80;;
12052;SDS011;6087;48.982;12.064;2022-07-23T01:00:22;10.63;;;9.27;;
12052;SDS011;6087;48.982;12.064;2022-07-23T01:02:50;9.88;;;8.93;;
12052;SDS011;6087;48.982;12.064;2022-07-23T01:05:17;11.95;;;8.73;;
12052;SDS011;6087;48.982;12.064;2022-07-23T01:07:47;10.32;;;8.75;;
12052;SDS011;6087;48.982;12.064;2022-07-23T01:10:14;12.35;;;9.43;;
12052;SDS011;6087;48.982;12.064;2022-07-23T01:13:00;10.60;;;9.60;;
12052;SDS011;6087;48.982;12.064;2022-07-23T01:15:28;9.93;;;9.02;;
12052;SDS011;6087;48.982;12.064;2022-07-23T01:17:56;12.20;;;9.45;;
12052;SDS011;6087;48.982;12.064;2022-07-23T01:20:23;11.50;;;9.20;;
12052;SDS011;6087;48.982;12.064;2022-07-23T01:22:52;9.93;;;8.93;;
12052;SDS011;6087;48.982;12.064;2022-07-23T01:25:19;11.13;;;9.15;;
12052;SDS011;6087;48.982;12.064;2022-07-23T01:27:47;11.40;;;10.15;;
12052;SDS011;6087;48.982;12.064;2022-07-23T01:30:14;10.90;;;9.40;;
12052;SDS011;6087;48.982;12.064;2022-07-23T01:32:41;10.40;;;9.43;;
12052;SDS011;6087;48.982;12.064;2022-07-23T01:35:08;11.18;;;9.55;;
12052;SDS011;6087;48.982;12.064;2022-07-23T01:37:36;11.13;;;10.02;;
12052;SDS011;6087;48.982;12.064;2022-07-23T01:40:05;11.43;;;9.60;;
12052;SDS011;6087;48.982;12.064;2022-07-23T01:42:33;9.82;;;8.85;;
12052;SDS011;6087;48.982;12.064;2022-07-23T01:45:01;13.75;;;10.20;;
12052;SDS011;6087;48.982;12.064;2022-07-23T01:47:28;12.23;;;9.50;;
12052;SDS011;6087;48.982;12.064;2022-07-23T01:49:55;18.40;;;10.40;;
12052;SDS011;6087;48.982;12.064;2022-07-23T01:52:22;11.25;;;10.15;;
12052;SDS011;6087;48.982;12.064;2022-07-23T01:54:48;10.15;;;9.20;;
12052;SDS011;6087;48.982;12.064;2022-07-23T01:57:17;11.98;;;10.02;;
12052;SDS011;6087;48.982;12.064;2022-07-23T01:59:43;13.50;;;9.75;;
12052;SDS011;6087;48.982;12.064;2022-07-23T02:02:10;11.65;;;10.35;;
12052;SDS011;6087;48.982;12.064;2022-07-23T02:04:37;11.48;;;9.52;;
12052;SDS011;6087;48.982;12.064;2022-07-23T02:07:04;12.52;;;10.05;;
12052;SDS011;6087;48.982;12.064;2022-07-23T02:09:32;13.60;;;10.07;;
12052;SDS011;6087;48.982;12.064;2022-07-23T02:11:59;10.55;;;9.43;;
12052;SDS011;6087;48.982;12.064;2022-07-23T02:14:28;10.43;;;9.25;;
12052;SDS011;6087;48.982;12.064;2022-07-23T02:16:55;13.43;;;10.32;;
12052;SDS011;6087;48.982;12.064;2022-07-23T02:19:22;11.20;;;10.00;;
12052;SDS011;6087;48.982;12.064;2022-07-23T02:21:49;13.32;;;10.15;;
12052;SDS011;6087;48.982;12.064;2022-07-23T02:24:16;10.38;;;9.38;;
12052;SDS011;6087;48.982;12.064;2022-07-23T02:26:43;10.00;;;8.40;;
12052;SDS011;6087;48.982;12.064;2022-07-23T02:29:10;10.30;;;9.20;;
12052;SDS011;6087;48.982;12.064;2022-07-23T02:31:38;10.73;;;9.10;;
12052;SDS011;6087;48.982;12.064;2022-07-23T02:34:05;10.45;;;9.00;;
12052;SDS011;6087;48.982;12.064;2022-07-23T02:36:32;10.70;;;9.23;;
12052;SDS011;6087;48.982;12.064;2022-07-23T02:38:59;11.10;;;9.07;;
12052;SDS011;6087;48.982;12.064;2022-07-23T02:41:26;10.60;;;8.68;;
12052;SDS011;6087;48.982;12.064;2022-07-23T02:43:52;9.30;;;8.10;;
12052;SDS011;6087;48.982;12.064;2022-07-23T02:46:19;8.80;;;8.02;;
12052;SDS011;6087;48.982;12.064;2022-07-23T02:48:48;9.90;;;8.05;;
12052;SDS011;6087;48.982;12.064;2022-07-23T02:51:14;9.40;;;8.40;;
12052;SDS011;6087;48.982;12.064;2022-07-23T02:53:41;8.20;;;7.40;;
12052;SDS011;6087;48.982;12.064;2022-07-23T02:56:08;8.07;;;7.18;;
12052;SDS011;6087;48.982;12.064;2022-07-23T02:58:35;7.80;;;6.88;;
12052;SDS011;6087;48.982;12.064;2022-07-23T03:01:02;9.05;;;7.25;;
12052;SDS011;6087;48.982;12.064;2022-07-23T03:03:29;9.35;;;7.93;;
12052;SDS011;6087;48.982;12.064;2022-07-23T03:05:59;7.43;;;6.72;;
12052;SDS011;6087;48.982;12.064;2022-07-23T03:08:26;8.18;;;7.38;;
12052;SDS011;6087;48.982;12.064;2022-07-23T03:10:53;9.02;;;8.15;;
12052;SDS011;6087;48.982;12.064;2022-07-23T03:13:20;9.48;;;8.32;;
12052;SDS011;6087;48.982;12.064;2022-07-23T03:15:46;8.48;;;6.68;;
12052;SDS011;6087;48.982;12.064;2022-07-23T03:18:13;7.57;;;6.40;;
12052;SDS011;6087;48.982;12.064;2022-07-23T03:20:40;8.35;;;6.72;;
12052;SDS011;6087;48.982;12.064;2022-07-23T03:23:09;8.02;;;6.53;;
12052;SDS011;6087;48.982;12.064;2022-07-23T03:25:36;9.55;;;7.25;;
12052;SDS011;6087;48.982;12.064;2022-07-23T03:28:03;7.10;;;6.38;;
12052;SDS011;6087;48.982;12.064;2022-07-23T03:30:30;7.90;;;7.10;;
12052;SDS011;6087;48.982;12.064;2022-07-23T03:32:57;7.82;;;7.13;;
12052;SDS011;6087;48.982;12.064;2022-07-23T03:35:24;8.48;;;7.57;;
12052;SDS011;6087;48.982;12.064;2022-07-23T03:37:51;9.90;;;7.43;;
12052;SDS011;6087;48.982;12.064;2022-07-23T03:40:19;7.28;;;6.55;;
12052;SDS011;6087;48.982;12.064;2022-07-23T03:42:46;8.57;;;6.43;;
12052;SDS011;6087;48.982;12.064;2022-07-23T03:45:13;4.97;;;4.50;;
12052;SDS011;6087;48.982;12.064;2022-07-23T03:47:40;7.25;;;6.53;;
12052;SDS011;6087;48.982;12.064;2022-07-23T03:50:08;6.00;;;5.30;;
12052;SDS011;6087;48.982;12.064;2022-07-23T03:52:36;6.60;;;4.70;;
12052;SDS011;6087;48.982;12.064;2022-07-23T03:55:03;4.85;;;4.40;;
12052;SDS011;6087;48.982;12.064;2022-07-23T03:57:32;6.07;;;4.60;;
12052;SDS011;6087;48.982;12.064;2022-07-23T03:59:59;5.68;;;4.05;;
12052;SDS011;6087;48.982;12.064;2022-07-23T04:02:26;6.30;;;4.65;;
12052;SDS011;6087;48.982;12.064;2022-07-23T04:04:53;7.43;;;5.05;;
12052;SDS011;6087;48.982;12.064;2022-07-23T04:07:20;7.43;;;4.80;;
12052;SDS011;6087;48.982;12.064;2022-07-23T04:09:47;8.15;;;5.15;;
12052;SDS011;6087;48.982;12.064;2022-07-23T04:12:14;6.65;;;5.00;;
12052;SDS011;6087;48.982;12.064;2022-07-23T04:14:42;5.10;;;4.60;;
12052;SDS011;6087;48.982;12.064;2022-07-23T04:17:09;4.80;;;3.80;;
12052;SDS011;6087;48.982;12.064;2022-07-23T04:19:36;4.45;;;4.05;;
12052;SDS011;6087;48.982;12.064;2022-07-23T04:22:05;4.88;;;4.38;;
12052;SDS011;6087;48.982;12.064;2022-07-23T04:24:32;7.28;;;4.65;;
12052;SDS011;6087;48.982;12.064;2022-07-23T04:26:59;5.47;;;4.35;;
12052;SDS011;6087;48.982;12.064;2022-07-23T04:29:26;5.45;;;4.47;;
12052;SDS011;6087;48.982;12.064;2022-07-23T04:31:55;5.30;;;4.60;;
12052;SDS011;6087;48.982;12.064;2022-07-23T04:34:22;6.78;;;4.28;;
12052;SDS011;6087;48.982;12.064;2022-07-23T04:36:49;5.70;;;3.90;;
12052;SDS011;6087;48.982;12.064;2022-07-23T04:39:16;6.05;;;4.28;;
12052;SDS011;6087;48.982;12.064;2022-07-23T04:41:42;4.70;;;4.30;;
12052;SDS011;6087;48.982;12.064;2022-07-23T04:44:09;5.20;;;4.70;;
12052;SDS011;6087;48.982;12.064;2022-07-23T04:46:36;6.22;;;4.85;;
12052;SDS011;6087;48.982;12.064;2022-07-23T04:49:04;5.38;;;4.70;;
12052;SDS011;6087;48.982;12.064;2022-07-23T04:51:31;5.07;;;4.57;;
12052;SDS011;6087;48.982;12.064;2022-07-23T04:53:58;5.47;;;4.40;;
12052;SDS011;6087;48.982;12.064;2022-07-23T04:56:25;4.70;;;4.22;;
12052;SDS011;6087;48.982;12.064;2022-07-23T04:58:52;4.82;;;4.25;;
12052;SDS011;6087;48.982;12.064;2022-07-23T05:01:19;6.93;;;4.05;;
12052;SDS011;6087;48.982;12.064;2022-07-23T05:03:46;4.75;;;4.30;;
12052;SDS011;6087;48.982;12.064;2022-07-23T05:06:15;5.13;;;4.20;;
12052;SDS011;6087;48.982;12.064;2022-07-23T05:08:42;7.32;;;4.30;;
12052;SDS011;6087;48.982;12.064;2022-07-23T05:11:09;4.50;;;4.00;;
12052;SDS011;6087;48.982;12.064;2022-07-23T05:13:36;5.88;;;4.70;;
12052;SDS011;6087;48.982;12.064;2022-07-23T05:16:03;5.25;;;3.78;;
12052;SDS011;6087;48.982;12.064;2022-07-23T05:18:30;5.90;;;4.95;;
12052;SDS011;6087;48.982;12.064;2022-07-23T05:20:57;4.70;;;4.25;;
12052;SDS011;6087;48.982;12.064;2022-07-23T05:23:25;5.35;;;3.70;;
12052;SDS011;6087;48.982;12.064;2022-07-23T05:25:52;5.82;;;4.75;;
12052;SDS011;6087;48.982;12.064;2022-07-23T05:28:19;6.03;;;5.13;;
12052;SDS011;6087;48.982;12.064;2022-07-23T05:30:46;4.38;;;3.97;;
12052;SDS011;6087;48.982;12.064;2022-07-23T05:33:13;5.10;;;4.50;;
12052;SDS011;6087;48.982;12.064;2022-07-23T05:35:40;5.88;;;4.32;;
12052;SDS011;6087;48.982;12.064;2022-07-23T05:38:06;5.32;;;3.97;;
12052;SDS011;6087;48.982;12.064;2022-07-23T05:40:35;6.47;;;4.40;;
12052;SDS011;6087;48.982;12.064;2022-07-23T05:43:02;6.45;;;4.25;;
12052;SDS011;6087;48.982;12.064;2022-07-23T05:45:28;4.80;;;4.10;;
12052;SDS011;6087;48.982;12.064;2022-07-23T05:47:55;5.00;;;4.03;;
12052;SDS011;6087;48.982;12.064;2022-07-23T05:50:22;4.43;;;4.03;;
12052;SDS011;6087;48.982;12.064;2022-07-23T05:52:49;5.55;;;4.05;;
12052;SDS011;6087;48.982;12.064;2022-07-23T05:55:16;4.97;;;4.47;;
12052;SDS011;6087;48.982;12.064;2022-07-23T05:57:44;5.03;;;4.53;;
12052;SDS011;6087;48.982;12.064;2022-07-23T06:00:12;5.05;;;4.55;;
12052;SDS011;6087;48.982;12.064;2022-07-23T06:02:39;5.85;;;5.00;;
12052;SDS011;6087;48.982;12.064;2022-07-23T06:05:06;5.07;;;4.57;;
12052;SDS011;6087;48.982;12.064;2022-07-23T06:07:34;6.40;;;4.90;;
12052;SDS011;6087;48.982;12.064;2022-07-23T06:10:01;6.95;;;4.20;;
12052;SDS011;6087;48.982;12.064;2022-07-23T06:12:29;4.00;;;3.70;;
12052;SDS011;6087;48.982;12.064;2022-07-23T06:14:57;3.95;;;3.55;;
12052;SDS011;6087;48.982;12.064;2022-07-23T06:17:24;4.07;;;3.78;;
12052;SDS011;6087;48.982;12.064;2022-07-23T06:19:51;4.18;;;3.80;;
12052;SDS011;6087;48.982;12.064;2022-07-23T06:22:18;5.85;;;4.22;;
12052;SDS011;6087;48.982;12.064;2022-07-23T06:24:46;6.05;;;4.32;;
12052;SDS011;6087;48.982;12.064;2022-07-23T06:27:13;4.50;;;3.60;;
12052;SDS011;6087;48.982;12.064;2022-07-23T06:29:40;4.68;;;4.07;;
12052;SDS011;6087;48.982;12.064;2022-07-23T06:32:08;3.92;;;3.60;;
12052;SDS011;6087;48.982;12.064;2022-07-23T06:34:35;5.05;;;4.47;;
12052;SDS011;6087;48.982;12.064;2022-07-23T06:37:02;4.03;;;3.63;;
12052;SDS011;6087;48.982;12.064;2022-07-23T06:39:29;4.35;;;3.95;;
12052;SDS011;6087;48.982;12.064;2022-07-23T06:41:56;4.30;;;3.90;;
12052;SDS011;6087;48.982;12.064;2022-07-23T06:44:23;4.28;;;3.75;;
12052;SDS011;6087;48.982;12.064;2022-07-23T06:46:50;5.13;;;4.20;;
12052;SDS011;6087;48.982;12.064;2022-07-23T06:49:18;4.90;;;4.30;;
12052;SDS011;6087;48.982;12.064;2022-07-23T06:51:45;4.80;;;4.40;;
12052;SDS011;6087;48.982;12.064;2022-07-23T06:54:12;4.97;;;4.55;;
12052;SDS011;6087;48.982;12.064;2022-07-23T06:56:39;5.25;;;4.80;;
12052;SDS011;6087;48.982;12.064;2022-07-23T06:59:06;4.53;;;4.13;;
12052;SDS011;6087;48.982;12.064;2022-07-23T07:01:33;4.95;;;4.10;;
12052;SDS011;6087;48.982;12.064;2022-07-23T07:04:00;3.95;;;3.58;;
12052;SDS011;6087;48.982;12.064;2022-07-23T07:06:28;4.90;;;4.25;;
12052;SDS011;6087;48.982;12.064;2022-07-23T07:08:55;4.30;;;3.90;;
12052;SDS011;6087;48.982;12.064;2022-07-23T07:11:22;4.35;;;3.95;;
12052;SDS011;6087;48.982;12.064;2022-07-23T07:13:50;3.90;;;3.60;;
12052;SDS011;6087;48.982;12.064;2022-07-23T07:16:17;4.00;;;3.55;;
12052;SDS011;6087;48.982;12.064;2022-07-23T07:18:44;4.45;;;4.05;;
12052;SDS011;6087;48.982;12.064;2022-07-23T07:21:11;4.35;;;4.03;;
12052;SDS011;6087;48.982;12.064;2022-07-23T07:23:39;4.63;;;3.75;;
12052;SDS011;6087;48.982;12.064;2022-07-23T07:26:06;4.63;;;3.75;;
12052;SDS011;6087;48.982;12.064;2022-07-23T07:28:33;5.97;;;4.10;;
12052;SDS011;6087;48.982;12.064;2022-07-23T07:31:00;3.53;;;3.25;;
12052;SDS011;6087;48.982;12.064;2022-07-23T07:33:27;4.45;;;4.05;;
12052;SDS011;6087;48.982;12.064;2022-07-23T07:35:54;5.63;;;4.00;;
12052;SDS011;6087;48.982;12.064;2022-07-23T07:38:21;4.60;;;3.95;;
12052;SDS011;6087;48.982;12.064;2022-07-23T07:40:50;4.05;;;3.75;;
12052;SDS011;6087;48.982;12.064;2022-07-23T07:43:17;4.70;;;4.13;;
12052;SDS011;6087;48.982;12.064;2022-07-23T07:45:44;3.97;;;3.67;;
12052;SDS011;6087;48.982;12.064;2022-07-23T07:48:11;4.57;;;4.03;;
12052;SDS011;6087;48.982;12.064;2022-07-23T07:50:38;4.50;;;3.50;;
12052;SDS011;6087;48.982;12.064;2022-07-23T07:53:05;4.18;;;3.78;;
12052;SDS011;6087;48.982;12.064;2022-07-23T07:55:31;4.75;;;4.35;;
12052;SDS011;6087;48.982;12.064;2022-07-23T07:58:00;4.00;;;3.65;;
12052;SDS011;6087;48.982;12.064;2022-07-23T08:00:27;4.93;;;3.53;;
12052;SDS011;6087;48.982;12.064;2022-07-23T08:02:54;4.15;;;3.85;;
12052;SDS011;6087;48.982;12.064;2022-07-23T08:05:22;4.97;;;4.43;;
12052;SDS011;6087;48.982;12.064;2022-07-23T08:07:51;4.15;;;3.67;;
12052;SDS011;6087;48.982;12.064;2022-07-23T08:10:18;3.78;;;3.33;;
12052;SDS011;6087;48.982;12.064;2022-07-23T08:12:46;4.07;;;3.78;;
12052;SDS011;6087;48.982;12.064;2022-07-23T08:15:17;4.18;;;3.60;;
12052;SDS011;6087;48.982;12.064;2022-07-23T08:17:45;4.38;;;3.95;;
12052;SDS011;6087;48.982;12.064;2022-07-23T08:20:14;4.55;;;3.58;;
12052;SDS011;6087;48.982;12.064;2022-07-23T08:22:46;4.40;;;4.00;;
12052;SDS011;6087;48.982;12.064;2022-07-23T08:25:15;3.80;;;3.50;;
12052;SDS011;6087;48.982;12.064;2022-07-23T08:27:42;4.13;;;3.83;;
12052;SDS011;6087;48.982;12.064;2022-07-23T08:30:09;3.85;;;3.55;;
12052;SDS011;6087;48.982;12.064;2022-07-23T08:35:33;5.53;;;3.85;;
12052;SDS011;6087;48.982;12.064;2022-07-23T08:38:02;3.35;;;3.05;;
12052;SDS011;6087;48.982;12.064;2022-07-23T08:40:31;3.50;;;3.30;;
12052;SDS011;6087;48.982;12.064;2022-07-23T08:43:00;3.78;;;3.47;;
12052;SDS011;6087;48.982;12.064;2022-07-23T08:45:35;3.70;;;3.40;;
12052;SDS011;6087;48.982;12.064;2022-07-23T08:48:03;4.68;;;3.75;;
12052;SDS011;6087;48.982;12.064;2022-07-23T08:50:36;4.05;;;3.65;;
12052;SDS011;6087;48.982;12.064;2022-07-23T08:53:05;4.20;;;3.78;;
12052;SDS011;6087;48.982;12.064;2022-07-23T08:55:33;4.18;;;3.78;;
12052;SDS011;6087;48.982;12.064;2022-07-23T08:58:00;3.97;;;3.67;;
12052;SDS011;6087;48.982;12.064;2022-07-23T09:00:27;4.20;;;3.90;;
12052;SDS011;6087;48.982;12.064;2022-07-23T09:02:55;9.80;;;3.58;;
12052;SDS011;6087;48.982;12.064;2022-07-23T09:05:23;5.10;;;4.25;;
12052;SDS011;6087;48.982;12.064;2022-07-23T09:08:04;5.10;;;3.75;;
12052;SDS011;6087;48.982;12.064;2022-07-23T09:10:36;4.80;;;4.40;;
12052;SDS011;6087;48.982;12.064;2022-07-23T09:13:27;4.72;;;4.10;;
12052;SDS011;6087;48.982;12.064;2022-07-23T09:15:57;5.22;;;4.72;;
12052;SDS011;6087;48.982;12.064;2022-07-23T09:21:13;4.78;;;4.38;;
12052;SDS011;6087;48.982;12.064;2022-07-23T09:23:49;4.65;;;4.25;;
12052;SDS011;6087;48.982;12.064;2022-07-23T09:26:22;5.20;;;4.70;;
12052;SDS011;6087;48.982;12.064;2022-07-23T09:28:56;6.45;;;5.10;;
12052;SDS011;6087;48.982;12.064;2022-07-23T09:31:25;5.55;;;4.90;;
12052;SDS011;6087;48.982;12.064;2022-07-23T09:34:06;5.32;;;4.93;;
12052;SDS011;6087;48.982;12.064;2022-07-23T09:36:35;6.25;;;4.55;;
12052;SDS011;6087;48.982;12.064;2022-07-23T09:39:03;5.60;;;5.10;;
12052;SDS011;6087;48.982;12.064;2022-07-23T09:41:33;5.45;;;4.97;;
12052;SDS011;6087;48.982;12.064;2022-07-23T09:44:12;5.22;;;4.53;;
12052;SDS011;6087;48.982;12.064;2022-07-23T09:46:42;5.90;;;5.20;;
12052;SDS011;6087;48.982;12.064;2022-07-23T09:49:14;5.53;;;5.13;;
12052;SDS011;6087;48.982;12.064;2022-07-23T09:51:45;5.88;;;5.38;;
12052;SDS011;6087;48.982;12.064;2022-07-23T09:54:21;5.88;;;5.38;;
12052;SDS011;6087;48.982;12.064;2022-07-23T09:56:50;6.38;;;5.72;;
12052;SDS011;6087;48.982;12.064;2022-07-23T09:59:18;6.22;;;5.72;;
12052;SDS011;6087;48.982;12.064;2022-07-23T10:01:50;6.38;;;5.13;;
12052;SDS011;6087;48.982;12.064;2022-07-23T10:04:17;6.00;;;5.60;;
12052;SDS011;6087;48.982;12.064;2022-07-23T10:06:46;6.57;;;5.80;;
12052;SDS011;6087;48.982;12.064;2022-07-23T10:09:14;6.57;;;5.93;;
12052;SDS011;6087;48.982;12.064;2022-07-23T10:11:47;7.78;;;6.00;;
12052;SDS011;6087;48.982;12.064;2022-07-23T10:14:15;7.65;;;6.45;;
12052;SDS011;6087;48.982;12.064;2022-07-23T10:16:41;6.28;;;5.68;;
12052;SDS011;6087;48.982;12.064;2022-07-23T10:19:09;6.85;;;6.20;;
12052;SDS011;6087;48.982;12.064;2022-07-23T10:21:38;7.07;;;6.35;;
12052;SDS011;6087;48.982;12.064;2022-07-23T10:24:12;6.90;;;6.18;;
12052;SDS011;6087;48.982;12.064;2022-07-23T10:26:50;7.35;;;6.65;;
12052;SDS011;6087;48.982;12.064;2022-07-23T10:29:30;6.68;;;6.07;;
12052;SDS011;6087;48.982;12.064;2022-07-23T10:32:07;7.22;;;6.63;;
12052;SDS011;6087;48.982;12.064;2022-07-23T10:34:55;6.53;;;6.03;;
12052;SDS011;6087;48.982;12.064;2022-07-23T10:37:32;6.43;;;5.82;;
12052;SDS011;6087;48.982;12.064;2022-07-23T10:40:13;6.28;;;5.78;;
12052;SDS011;6087;48.982;12.064;2022-07-23T10:42:42;6.20;;;5.60;;
12052;SDS011;6087;48.982;12.064;2022-07-23T10:45:23;6.90;;;6.25;;
12052;SDS011;6087;48.982;12.064;2022-07-23T10:47:52;5.60;;;5.05;;
12052;SDS011;6087;48.982;12.064;2022-07-23T10:50:20;6.53;;;5.90;;
12052;SDS011;6087;48.982;12.064;2022-07-23T10:55:44;6.75;;;6.07;;
12052;SDS011;6087;48.982;12.064;2022-07-23T10:58:19;6.55;;;6.05;;
12052;SDS011;6087;48.982;12.064;2022-07-23T11:00:47;6.32;;;5.78;;
12052;SDS011;6087;48.982;12.064;2022-07-23T11:03:28;6.63;;;6.03;;
12052;SDS011;6087;48.982;12.064;2022-07-23T11:06:02;6.20;;;5.70;;
12052;SDS011;6087;48.982;12.064;2022-07-23T11:08:30;5.38;;;4.88;;
12052;SDS011;6087;48.982;12.064;2022-07-23T11:11:10;6.22;;;5.63;;
12052;SDS011;6087;48.982;12.064;2022-07-23T11:13:39;5.97;;;5.47;;
12052;SDS011;6087;48.982;12.064;2022-07-23T11:16:17;5.72;;;5.22;;
12052;SDS011;6087;48.982;12.064;2022-07-23T11:24:23;5.75;;;5.25;;
12052;SDS011;6087;48.982;12.064;2022-07-23T11:26:58;5.57;;;5.07;;
12052;SDS011;6087;48.982;12.064;2022-07-23T11:29:41;5.57;;;5.05;;
12052;SDS011;6087;48.982;12.064;2022-07-23T11:32:17;7.53;;;5.85;;
12052;SDS011;6087;48.982;12.064;2022-07-23T11:34:54;5.63;;;4.95;;
12052;SDS011;6087;48.982;12.064;2022-07-23T11:37:34;6.45;;;4.80;;
12052;SDS011;6087;48.982;12.064;2022-07-23T11:40:04;7.07;;;5.38;;
12052;SDS011;6087;48.982;12.064;2022-07-23T11:42:36;6.80;;;6.00;;
12052;SDS011;6087;48.982;12.064;2022-07-23T11:45:05;8.07;;;5.90;;
12052;SDS011;6087;48.982;12.064;2022-07-23T11:47:32;14.07;;;7.28;;
12052;SDS011;6087;48.982;12.064;2022-07-23T11:50:00;8.23;;;7.43;;
12052;SDS011;6087;48.982;12.064;2022-07-23T11:52:29;6.95;;;6.20;;
12052;SDS011;6087;48.982;12.064;2022-07-23T11:54:57;10.10;;;7.30;;
12052;SDS011;6087;48.982;12.064;2022-07-23T11:57:25;9.18;;;6.60;;
12052;SDS011;6087;48.982;12.064;2022-07-23T11:59:57;7.00;;;6.38;;
12052;SDS011;6087;48.982;12.064;2022-07-23T12:02:27;8.88;;;6.63;;
12052;SDS011;6087;48.982;12.064;2022-07-23T12:04:54;6.35;;;5.75;;
12052;SDS011;6087;48.982;12.064;2022-07-23T12:07:25;7.97;;;6.18;;
12052;SDS011;6087;48.982;12.064;2022-07-23T12:09:53;6.13;;;5.53;;
12052;SDS011;6087;48.982;12.064;2022-07-23T12:12:21;7.47;;;5.65;;
12052;SDS011;6087;48.982;12.064;2022-07-23T12:14:50;6.38;;;5.78;;
12052;SDS011;6087;48.982;12.064;2022-07-23T12:17:19;5.65;;;5.25;;
12052;SDS011;6087;48.982;12.064;2022-07-23T12:19:47;6.13;;;5.53;;
12052;SDS011;6087;48.982;12.064;2022-07-23T12:22:14;6.45;;;5.85;;
12052;SDS011;6087;48.982;12.064;2022-07-23T12:24:58;6.68;;;6.15;;
12052;SDS011;6087;48.982;12.064;2022-07-23T12:27:27;8.18;;;5.90;;
12052;SDS011;6087;48.982;12.064;2022-07-23T12:29:54;6.43;;;5.82;;
12052;SDS011;6087;48.982;12.064;2022-07-23T12:32:23;7.80;;;6.55;;
12052;SDS011;6087;48.982;12.064;2022-07-23T12:35:01;7.05;;;6.22;;
12052;SDS011;6087;48.982;12.064;2022-07-23T12:37:30;7.43;;;6.68;;
12052;SDS011;6087;48.982;12.064;2022-07-23T12:42:52;7.32;;;5.78;;
12052;SDS011;6087;48.982;12.064;2022-07-23T12:45:21;6.53;;;5.97;;
12052;SDS011;6087;48.982;12.064;2022-07-23T12:47:57;6.20;;;5.70;;
12052;SDS011;6087;48.982;12.064;2022-07-23T12:50:30;7.60;;;5.85;;
12052;SDS011;6087;48.982;12.064;2022-07-23T12:53:02;7.68;;;6.97;;
12052;SDS011;6087;48.982;12.064;2022-07-23T12:55:30;6.35;;;5.70;;
12052;SDS011;6087;48.982;12.064;2022-07-23T12:58:02;11.45;;;6.32;;
12052;SDS011;6087;48.982;12.064;2022-07-23T13:00:31;6.40;;;5.75;;
12052;SDS011;6087;48.982;12.064;2022-07-23T13:02:59;6.30;;;5.68;;
12052;SDS011;6087;48.982;12.064;2022-07-23T13:05:26;6.13;;;5.63;;
12052;SDS011;6087;48.982;12.064;2022-07-23T13:07:53;6.63;;;5.95;;
12052;SDS011;6087;48.982;12.064;2022-07-23T13:10:20;6.22;;;5.68;;
12052;SDS011;6087;48.982;12.064;2022-07-23T13:12:46;8.07;;;6.15;;
12052;SDS011;6087;48.982;12.064;2022-07-23T13:15:13;7.07;;;5.75;;
12052;SDS011;6087;48.982;12.064;2022-07-23T13:17:40;6.35;;;5.78;;
12052;SDS011;6087;48.982;12.064;2022-07-23T13:20:11;6.47;;;5.38;;
12052;SDS011;6087;48.982;12.064;2022-07-23T13:22:38;6.43;;;5.80;;
12052;SDS011;6087;48.982;12.064;2022-07-23T13:25:05;6.30;;;5.78;;
12052;SDS011;6087;48.982;12.064;2022-07-23T13:27:33;6.05;;;5.55;;
12052;SDS011;6087;48.982;12.064;2022-07-23T13:29:59;5.70;;;5.20;;
12052;SDS011;6087;48.982;12.064;2022-07-23T13:32:27;6.10;;;4.82;;
12052;SDS011;6087;48.982;12.064;2022-07-23T13:34:54;8.40;;;5.55;;
12052;SDS011;6087;48.982;12.064;2022-07-23T13:37:22;5.63;;;5.13;;
12052;SDS011;6087;48.982;12.064;2022-07-23T13:39:49;6.38;;;5.75;;
12052;SDS011;6087;48.982;12.064;2022-07-23T13:42:16;6.00;;;5.50;;
12052;SDS011;6087;48.982;12.064;2022-07-23T13:44:42;7.63;;;5.63;;
12052;SDS011;6087;48.982;12.064;2022-07-23T13:47:09;5.68;;;5.18;;
12052;SDS011;6087;48.982;12.064;2022-07-23T13:49:36;5.95;;;5.55;;
12052;SDS011;6087;48.982;12.064;2022-07-23T13:52:03;5.97;;;5.38;;
12052;SDS011;6087;48.982;12.064;2022-07-23T13:54:32;5.82;;;5.32;;
12052;SDS011;6087;48.982;12.064;2022-07-23T13:56:59;6.10;;;5.55;;
12052;SDS011;6087;48.982;12.064;2022-07-23T13:59:26;5.82;;;5.28;;
12052;SDS011;6087;48.982;12.064;2022-07-23T14:01:52;5.50;;;5.03;;
12052;SDS011;6087;48.982;12.064;2022-07-23T14:04:20;6.20;;;5.60;;
12052;SDS011;6087;48.982;12.064;2022-07-23T14:06:47;6.93;;;5.68;;
12052;SDS011;6087;48.982;12.064;2022-07-23T14:09:14;5.53;;;5.03;;
12052;SDS011;6087;48.982;12.064;2022-07-23T14:11:42;5.88;;;5.30;;
12052;SDS011;6087;48.982;12.064;2022-07-23T14:14:09;6.13;;;5.63;;
12052;SDS011;6087;48.982;12.064;2022-07-23T14:16:36;5.70;;;5.30;;
12052;SDS011;6087;48.982;12.064;2022-07-23T14:19:03;5.65;;;5.15;;
12052;SDS011;6087;48.982;12.064;2022-07-23T14:21:30;5.25;;;4.78;;
12052;SDS011;6087;48.982;12.064;2022-07-23T14:23:57;5.43;;;4.82;;
12052;SDS011;6087;48.982;12.064;2022-07-23T14:26:24;5.97;;;5.38;;
12052;SDS011;6087;48.982;12.064;2022-07-23T14:28:52;5.45;;;5.05;;
12052;SDS011;6087;48.982;12.064;2022-07-23T14:31:19;6.53;;;4.97;;
12052;SDS011;6087;48.982;12.064;2022-07-23T14:33:46;5.53;;;5.03;;
12052;SDS011;6087;48.982;12.064;2022-07-23T14:36:13;5.13;;;4.72;;
12052;SDS011;6087;48.982;12.064;2022-07-23T14:38:40;5.55;;;5.03;;
12052;SDS011;6087;48.982;12.064;2022-07-23T14:41:07;5.45;;;4.95;;
12052;SDS011;6087;48.982;12.064;2022-07-23T14:43:35;5.40;;;4.90;;
12052;SDS011;6087;48.982;12.064;2022-07-23T14:46:04;6.28;;;5.07;;
12052;SDS011;6087;48.982;12.064;2022-07-23T14:48:31;5.55;;;5.05;;
12052;SDS011;6087;48.982;12.064;2022-07-23T14:50:58;4.93;;;4.40;;
12052;SDS011;6087;48.982;12.064;2022-07-23T14:53:25;5.40;;;4.90;;
12052;SDS011;6087;48.982;12.064;2022-07-23T14:55:58;5.18;;;4.75;;
12052;SDS011;6087;48.982;12.064;2022-07-23T14:58:25;6.43;;;4.78;;
12052;SDS011;6087;48.982;12.064;2022-07-23T15:00:52;5.82;;;5.32;;
12052;SDS011;6087;48.982;12.064;2022-07-23T15:03:21;4.07;;;3.78;;
12052;SDS011;6087;48.982;12.064;2022-07-23T15:05:53;5.03;;;4.50;;
12052;SDS011;6087;48.982;12.064;2022-07-23T15:08:24;4.60;;;4.15;;
12052;SDS011;6087;48.982;12.064;2022-07-23T15:10:52;4.65;;;4.18;;